createdAt,value
2022-11-16T00:02:12.395Z,8.69
2022-11-16T00:04:42.245Z,8.70
2022-11-16T00:07:10.601Z,8.71
2022-11-16T00:09:40.275Z,8.71
2022-11-16T00:12:11.309Z,8.67
2022-11-16T00:14:39.137Z,8.75
2022-11-16T00:17:07.138Z,8.80
2022-11-16T00:19:35.129Z,8.79
2022-11-16T00:22:04.583Z,8.76
2022-11-16T00:24:32.556Z,8.76
2022-11-16T00:27:00.459Z,8.75
2022-11-16T00:29:28.452Z,8.79
2022-11-16T00:31:56.845Z,8.80
2022-11-16T00:34:25.529Z,8.79
2022-11-16T00:36:53.910Z,8.77
2022-11-16T00:39:23.376Z,8.82
2022-11-16T00:41:51.851Z,8.88
2022-11-16T00:44:19.878Z,8.87
2022-11-16T00:46:47.864Z,8.80
2022-11-16T00:49:16.169Z,8.87
2022-11-16T00:51:44.334Z,8.83
2022-11-16T00:54:12.699Z,8.82
2022-11-16T00:56:42.459Z,8.75
2022-11-16T00:59:10.602Z,8.64
2022-11-16T01:01:38.830Z,8.69
2022-11-16T01:04:07.953Z,8.58
2022-11-16T01:06:37.276Z,8.61
2022-11-16T01:09:05.274Z,8.54
2022-11-16T01:11:50.646Z,8.59
2022-11-16T01:14:20.573Z,8.49
2022-11-16T01:16:50.589Z,8.48
2022-11-16T01:19:18.870Z,8.39
2022-11-16T01:21:46.980Z,8.37
2022-11-16T01:24:15.338Z,8.40
2022-11-16T01:26:43.357Z,8.37
2022-11-16T01:29:11.670Z,8.34
2022-11-16T01:31:45.421Z,8.39
2022-11-16T01:34:13.508Z,8.36
2022-11-16T01:36:41.487Z,8.27
2022-11-16T01:39:09.769Z,8.24
2022-11-16T01:41:45.983Z,8.32
2022-11-16T01:45:07.399Z,8.31
2022-11-16T01:47:36.838Z,8.23
2022-11-16T01:50:11.058Z,8.15
2022-11-16T01:52:45.594Z,8.18
2022-11-16T01:55:14.672Z,8.20
2022-11-16T01:57:51.017Z,8.18
2022-11-16T02:00:20.028Z,8.28
2022-11-16T02:03:07.990Z,8.23
2022-11-16T02:05:59.836Z,8.25
2022-11-16T02:09:05.549Z,8.25
2022-11-16T02:11:56.508Z,8.30
2022-11-16T02:14:38.894Z,8.28
2022-11-16T02:17:22.528Z,8.29
2022-11-16T02:20:26.687Z,8.27
2022-11-16T02:23:17.734Z,8.29
2022-11-16T02:25:55.084Z,8.28
2022-11-16T02:28:33.868Z,8.33
2022-11-16T02:31:08.353Z,8.39
2022-11-16T02:33:40.158Z,8.37
2022-11-16T02:36:13.554Z,8.39
2022-11-16T02:38:45.575Z,8.40
2022-11-16T02:41:18.595Z,8.40
2022-11-16T02:43:50.849Z,8.41
2022-11-16T02:46:25.178Z,8.48
2022-11-16T02:48:56.903Z,8.52
2022-11-16T02:51:28.500Z,8.51
2022-11-16T02:54:03.900Z,8.50
2022-11-16T02:56:44.187Z,8.48
2022-11-16T02:59:17.431Z,8.48
2022-11-16T03:01:54.484Z,8.46
2022-11-16T03:04:29.361Z,8.42
2022-11-16T03:07:01.589Z,8.40
2022-11-16T03:09:32.652Z,8.42
2022-11-16T03:12:00.777Z,8.40
2022-11-16T03:14:36.922Z,8.31
2022-11-16T03:17:09.311Z,8.26
2022-11-16T03:19:43.021Z,8.27
2022-11-16T03:22:15.566Z,8.22
2022-11-16T03:24:44.977Z,8.26
2022-11-16T03:27:23.323Z,8.23
2022-11-16T03:30:01.245Z,8.21
2022-11-16T03:32:35.706Z,8.16
2022-11-16T03:35:15.634Z,8.16
2022-11-16T03:37:45.699Z,8.14
2022-11-16T03:40:17.566Z,8.17
2022-11-16T03:42:49.527Z,8.18
2022-11-16T03:45:19.943Z,8.20
2022-11-16T03:47:51.857Z,8.23
2022-11-16T03:50:20.166Z,8.31
2022-11-16T03:52:48.160Z,8.23
2022-11-16T03:55:17.508Z,8.24
2022-11-16T03:57:46.393Z,8.26
2022-11-16T04:00:15.483Z,8.34
2022-11-16T04:02:44.679Z,8.31
2022-11-16T04:05:39.157Z,8.31
2022-11-16T04:08:25.043Z,8.38
2022-11-16T04:11:11.183Z,8.38
2022-11-16T04:13:56.680Z,8.39
2022-11-16T04:16:42.117Z,8.36
2022-11-16T04:19:28.034Z,8.35
2022-11-16T04:22:19.032Z,8.29
2022-11-16T04:24:49.178Z,8.36
2022-11-16T04:27:35.610Z,8.31
2022-11-16T04:30:05.292Z,8.30
2022-11-16T04:32:53.171Z,8.30
2022-11-16T04:35:38.699Z,8.32
2022-11-16T04:38:22.117Z,8.32
2022-11-16T04:40:50.152Z,8.26
2022-11-16T04:43:17.894Z,8.26
2022-11-16T04:46:03.957Z,8.27
2022-11-16T04:48:39.765Z,8.24
2022-11-16T04:51:08.677Z,8.34
2022-11-16T04:53:38.268Z,8.28
2022-11-16T04:56:14.782Z,8.21
2022-11-16T04:58:42.800Z,8.24
2022-11-16T05:01:11.584Z,8.26
2022-11-16T05:03:39.842Z,8.24
2022-11-16T05:06:08.396Z,8.24
2022-11-16T05:08:38.304Z,8.23
2022-11-16T05:11:07.010Z,8.23
2022-11-16T05:13:35.182Z,8.20
2022-11-16T05:16:03.888Z,8.18
2022-11-16T05:18:32.877Z,8.15
2022-11-16T05:21:00.399Z,8.13
2022-11-16T05:23:47.857Z,8.14
2022-11-16T05:26:19.914Z,8.09
2022-11-16T05:28:48.788Z,7.98
2022-11-16T05:31:16.743Z,8.01
2022-11-16T05:33:45.124Z,7.90
2022-11-16T05:36:14.627Z,7.89
2022-11-16T05:38:42.656Z,7.90
2022-11-16T05:41:10.978Z,7.78
2022-11-16T05:43:40.447Z,7.83
2022-11-16T05:46:19.358Z,7.89
2022-11-16T05:48:47.322Z,7.85
2022-11-16T05:51:15.564Z,7.85
2022-11-16T05:53:44.658Z,7.82
2022-11-16T05:56:17.069Z,7.87
2022-11-16T05:58:47.812Z,7.80
2022-11-16T06:01:16.073Z,7.86
2022-11-16T06:03:44.298Z,7.87
2022-11-16T06:06:12.651Z,7.86
2022-11-16T06:08:40.983Z,7.89
2022-11-16T06:11:13.214Z,7.90
2022-11-16T06:13:41.486Z,7.92
2022-11-16T06:16:12.496Z,7.97
2022-11-16T06:18:43.940Z,7.96
2022-11-16T06:21:13.509Z,7.99
2022-11-16T06:23:42.233Z,8.07
2022-11-16T06:26:11.180Z,8.05
2022-11-16T06:28:40.195Z,8.03
2022-11-16T06:31:09.900Z,8.02
2022-11-16T06:33:41.891Z,8.02
2022-11-16T06:36:16.993Z,8.03
2022-11-16T06:38:45.259Z,8.03
2022-11-16T06:41:14.260Z,8.04
2022-11-16T06:43:46.729Z,8.05
2022-11-16T06:46:18.451Z,8.03
2022-11-16T06:48:46.551Z,8.03
2022-11-16T06:51:15.550Z,8.01
2022-11-16T06:53:44.308Z,8.04
2022-11-16T06:56:15.420Z,8.02
2022-11-16T06:58:53.015Z,8.04
2022-11-16T07:01:23.247Z,8.10
2022-11-16T07:03:55.196Z,8.08
2022-11-16T07:06:23.224Z,8.07
2022-11-16T07:08:51.458Z,8.10
2022-11-16T07:11:25.145Z,8.12
2022-11-16T07:13:53.722Z,8.09
2022-11-16T07:16:23.508Z,8.10
2022-11-16T07:18:59.050Z,8.14
2022-11-16T07:21:29.596Z,8.14
2022-11-16T07:23:59.013Z,8.19
2022-11-16T07:26:28.864Z,8.13
2022-11-16T07:29:08.143Z,8.20
2022-11-16T07:31:41.899Z,8.13
2022-11-16T07:34:30.249Z,8.15
2022-11-16T07:37:08.099Z,8.16
2022-11-16T07:39:36.118Z,8.14
2022-11-16T07:42:11.609Z,8.16
2022-11-16T07:45:12.128Z,8.16
2022-11-16T07:47:52.201Z,8.18
2022-11-16T07:50:28.658Z,8.27
2022-11-16T07:52:56.723Z,8.24
2022-11-16T07:55:26.479Z,8.25
2022-11-16T07:57:54.592Z,8.20
2022-11-16T08:00:24.578Z,8.22
2022-11-16T08:03:01.467Z,8.29
2022-11-16T08:05:30.067Z,8.25
2022-11-16T08:07:57.993Z,8.23
2022-11-16T08:10:27.459Z,8.29
2022-11-16T08:12:58.836Z,8.31
2022-11-16T08:15:27.645Z,8.25
2022-11-16T08:17:56.125Z,8.24
2022-11-16T08:20:25.721Z,8.28
2022-11-16T08:22:53.696Z,8.32
2022-11-16T08:25:21.689Z,8.30
2022-11-16T08:27:49.775Z,8.30
2022-11-16T08:30:20.538Z,8.29
2022-11-16T08:32:48.568Z,8.31
2022-11-16T08:35:17.599Z,8.33
2022-11-16T08:37:47.690Z,8.37
2022-11-16T08:40:16.616Z,8.40
2022-11-16T08:42:47.695Z,8.38
2022-11-16T08:45:17.778Z,8.41
2022-11-16T08:47:46.363Z,8.37
2022-11-16T08:50:14.333Z,8.45
2022-11-16T08:52:42.450Z,8.48
2022-11-16T08:55:17.233Z,8.45
2022-11-16T08:57:45.677Z,8.42
2022-11-16T09:00:16.039Z,8.47
2022-11-16T09:02:44.029Z,8.47
2022-11-16T09:05:12.186Z,8.47
2022-11-16T09:07:41.217Z,8.54
2022-11-16T09:10:10.324Z,8.52
2022-11-16T09:12:40.359Z,8.54
2022-11-16T09:15:09.637Z,8.58
2022-11-16T09:17:37.652Z,8.59
2022-11-16T09:20:07.105Z,8.63
2022-11-16T09:22:35.585Z,8.67
2022-11-16T09:25:03.634Z,8.70
2022-11-16T09:27:31.717Z,8.72
2022-11-16T09:30:01.097Z,8.75
2022-11-16T09:32:32.122Z,8.76
2022-11-16T09:35:00.121Z,8.85
2022-11-16T09:37:28.335Z,8.95
2022-11-16T09:39:57.779Z,8.98
2022-11-16T09:42:37.085Z,9.07
2022-11-16T09:45:08.974Z,9.24
2022-11-16T09:47:45.395Z,9.32
2022-11-16T09:50:33.489Z,9.41
2022-11-16T09:53:09.245Z,9.56
2022-11-16T09:55:44.553Z,9.70
2022-11-16T09:58:17.313Z,9.75
2022-11-16T10:01:04.851Z,9.75
2022-11-16T10:03:42.159Z,9.77
2022-11-16T10:06:19.911Z,9.75
2022-11-16T10:08:49.920Z,9.74
2022-11-16T10:11:34.326Z,9.77
2022-11-16T10:14:17.310Z,9.80
2022-11-16T10:16:53.400Z,9.77
2022-11-16T10:19:33.636Z,9.83
2022-11-16T10:22:10.915Z,9.83
2022-11-16T10:24:56.160Z,9.81
2022-11-16T10:27:44.812Z,9.84
2022-11-16T10:30:16.143Z,9.86
2022-11-16T10:32:51.058Z,9.82
2022-11-16T10:35:24.108Z,9.86
2022-11-16T10:37:53.334Z,9.93
2022-11-16T10:40:26.365Z,9.94
2022-11-16T10:43:02.384Z,9.99
2022-11-16T10:45:38.944Z,10.01
2022-11-16T10:48:16.878Z,10.02
2022-11-16T10:50:47.948Z,10.09
2022-11-16T10:53:16.591Z,10.10
2022-11-16T10:55:44.544Z,10.04
2022-11-16T10:58:12.909Z,10.00
2022-11-16T11:00:45.527Z,10.03
2022-11-16T11:03:16.084Z,10.03
2022-11-16T11:05:54.162Z,10.00
2022-11-16T11:08:30.556Z,10.03
2022-11-16T11:11:03.141Z,10.09
2022-11-16T11:13:31.235Z,10.14
2022-11-16T11:16:18.789Z,10.19
2022-11-16T11:18:48.118Z,10.25
2022-11-16T11:21:20.202Z,10.23
2022-11-16T11:23:50.792Z,10.30
2022-11-16T11:26:36.190Z,10.30
2022-11-16T11:29:16.828Z,10.36
2022-11-16T11:31:47.359Z,10.37
2022-11-16T11:34:20.373Z,10.26
2022-11-16T11:36:52.100Z,10.25
2022-11-16T11:39:35.181Z,10.29
2022-11-16T11:42:19.781Z,10.25
2022-11-16T11:44:54.851Z,10.23
2022-11-16T11:50:23.485Z,10.42
2022-11-16T11:53:03.251Z,10.53
2022-11-16T11:55:31.204Z,10.57
2022-11-16T11:58:01.870Z,10.62
2022-11-16T12:00:39.098Z,10.62
2022-11-16T12:03:38.739Z,10.57
2022-11-16T12:06:20.461Z,10.64
2022-11-16T12:09:01.966Z,10.64
2022-11-16T12:11:40.024Z,10.91
2022-11-16T12:14:24.365Z,11.19
2022-11-16T12:17:00.901Z,11.28
2022-11-16T12:19:49.955Z,11.38
2022-11-16T12:22:44.936Z,11.61
2022-11-16T12:25:24.966Z,11.65
2022-11-16T12:28:07.951Z,11.80
2022-11-16T12:30:45.783Z,11.85
2022-11-16T12:33:28.613Z,11.93
2022-11-16T12:36:03.391Z,12.04
2022-11-16T12:38:56.562Z,12.07
2022-11-16T12:41:49.932Z,12.15
2022-11-16T12:44:28.038Z,12.25
2022-11-16T12:47:04.101Z,12.23
2022-11-16T12:49:48.938Z,12.23
2022-11-16T12:52:33.921Z,12.03
2022-11-16T12:55:25.893Z,11.62
2022-11-16T12:58:08.542Z,11.83
2022-11-16T13:00:50.350Z,11.87
2022-11-16T13:03:24.350Z,11.80
2022-11-16T13:06:00.320Z,11.83
2022-11-16T13:08:50.511Z,11.67
2022-11-16T13:11:26.844Z,11.71
2022-11-16T13:13:59.340Z,11.61
2022-11-16T13:16:28.729Z,11.48
2022-11-16T13:18:58.233Z,11.55
2022-11-16T13:21:34.943Z,11.45
2022-11-16T13:24:17.773Z,11.54
2022-11-16T13:26:55.564Z,11.41
2022-11-16T13:29:33.655Z,11.48
2022-11-16T13:32:10.026Z,11.51
2022-11-16T13:34:40.466Z,11.49
2022-11-16T13:37:41.576Z,11.44
2022-11-16T13:40:15.796Z,11.44
2022-11-16T13:42:58.899Z,11.51
2022-11-16T13:45:31.275Z,11.52
2022-11-16T13:48:00.393Z,11.44
2022-11-16T13:50:37.210Z,11.49
2022-11-16T13:55:58.820Z,11.32
2022-11-16T13:58:30.777Z,11.36
2022-11-16T14:01:02.699Z,11.28
2022-11-16T14:03:38.585Z,11.25
2022-11-16T14:06:25.730Z,11.32
2022-11-16T14:08:54.591Z,11.28
2022-11-16T14:11:32.083Z,11.26
2022-11-16T14:14:05.579Z,11.24
2022-11-16T14:16:54.420Z,11.21
2022-11-16T14:19:52.871Z,11.19
2022-11-16T14:22:35.819Z,11.20
2022-11-16T14:25:15.306Z,11.21
2022-11-16T14:27:53.058Z,11.22
2022-11-16T14:30:24.500Z,11.13
2022-11-16T14:32:55.695Z,11.16
2022-11-16T14:35:29.460Z,11.01
2022-11-16T14:38:03.033Z,11.07
2022-11-16T14:40:43.447Z,11.12
2022-11-16T14:43:19.322Z,11.02
2022-11-16T14:45:54.529Z,10.98
2022-11-16T14:48:25.897Z,10.91
2022-11-16T14:51:16.151Z,11.00
2022-11-16T14:53:49.657Z,10.86
2022-11-16T14:56:19.143Z,10.86
2022-11-16T14:58:55.767Z,10.88
2022-11-16T15:01:29.202Z,10.94
2022-11-16T15:04:02.480Z,10.76
2022-11-16T15:06:36.926Z,10.78
2022-11-16T15:09:06.689Z,10.83
2022-11-16T15:11:56.532Z,10.84
2022-11-16T15:14:29.659Z,10.75
2022-11-16T15:17:01.340Z,10.75
2022-11-16T15:19:31.914Z,10.79
2022-11-16T15:22:01.984Z,10.75
2022-11-16T15:24:32.367Z,10.75
2022-11-16T15:27:19.772Z,10.85
2022-11-16T15:29:48.674Z,10.83
2022-11-16T15:32:18.576Z,10.78
2022-11-16T15:34:52.053Z,10.80
2022-11-16T15:37:28.552Z,10.77
2022-11-16T15:39:58.716Z,10.73
2022-11-16T15:42:29.093Z,10.75
2022-11-16T15:44:57.681Z,10.75
2022-11-16T15:47:27.335Z,10.79
2022-11-16T15:49:55.410Z,10.63
2022-11-16T15:52:42.472Z,10.61
2022-11-16T15:55:24.932Z,10.55
2022-11-16T15:58:05.091Z,10.55
2022-11-16T16:00:35.890Z,10.54
2022-11-16T16:03:08.646Z,10.51
2022-11-16T16:05:38.468Z,10.48
2022-11-16T16:08:07.948Z,10.45
2022-11-16T16:10:40.452Z,10.43
2022-11-16T16:13:26.774Z,10.42
2022-11-16T16:16:27.405Z,10.40
2022-11-16T16:19:00.824Z,10.42
2022-11-16T16:21:42.503Z,10.42
2022-11-16T16:24:32.271Z,10.49
2022-11-16T16:27:00.310Z,10.49
2022-11-16T16:29:28.464Z,10.46
2022-11-16T16:31:56.929Z,10.43
2022-11-16T16:34:26.328Z,10.42
2022-11-16T16:36:54.308Z,10.37
2022-11-16T16:39:22.598Z,10.46
2022-11-16T16:41:51.141Z,10.41
2022-11-16T16:44:19.176Z,10.35
2022-11-16T16:46:47.280Z,10.41
2022-11-16T16:49:15.286Z,10.40
2022-11-16T16:51:44.624Z,10.33
2022-11-16T16:54:14.575Z,10.31
2022-11-16T16:56:42.528Z,10.33
2022-11-16T16:59:11.009Z,10.30
2022-11-16T17:01:39.000Z,10.32
2022-11-16T17:04:07.095Z,10.32
2022-11-16T17:06:35.477Z,10.27
2022-11-16T17:09:05.590Z,10.33
2022-11-16T17:11:33.691Z,10.28
2022-11-16T17:14:05.429Z,10.31
2022-11-16T17:16:33.651Z,10.28
2022-11-16T17:19:01.967Z,10.21
2022-11-16T17:21:30.138Z,10.14
2022-11-16T17:23:58.420Z,10.25
2022-11-16T17:26:29.513Z,10.30
2022-11-16T17:28:58.001Z,10.38
2022-11-16T17:31:27.889Z,10.41
2022-11-16T17:33:57.537Z,10.36
2022-11-16T17:36:25.531Z,10.42
2022-11-16T17:38:53.701Z,10.33
2022-11-16T17:41:22.750Z,10.43
2022-11-16T17:43:53.813Z,10.34
2022-11-16T17:46:23.436Z,10.24
2022-11-16T17:48:53.023Z,10.23
2022-11-16T17:51:23.328Z,10.24
2022-11-16T17:53:51.382Z,10.31
2022-11-16T17:56:20.962Z,10.29
2022-11-16T17:58:50.122Z,10.31
2022-11-16T18:01:20.094Z,10.23
2022-11-16T18:03:48.596Z,10.29
2022-11-16T18:06:18.731Z,10.23
2022-11-16T18:08:47.522Z,10.15
2022-11-16T18:11:17.322Z,10.16
2022-11-16T18:13:46.171Z,10.07
2022-11-16T18:16:16.237Z,10.02
2022-11-16T18:18:47.008Z,10.04
2022-11-16T18:21:20.654Z,10.08
2022-11-16T18:23:49.414Z,10.00
2022-11-16T18:26:21.149Z,10.03
2022-11-16T18:28:49.560Z,9.98
2022-11-16T18:31:20.216Z,9.96
2022-11-16T18:33:50.130Z,9.94
2022-11-16T18:36:19.083Z,9.92
2022-11-16T18:38:47.820Z,9.84
2022-11-16T18:41:19.715Z,9.81
2022-11-16T18:43:52.541Z,9.90
2022-11-16T18:46:21.966Z,9.89
2022-11-16T18:48:51.403Z,9.82
2022-11-16T18:51:21.019Z,9.84
2022-11-16T18:53:49.500Z,9.75
2022-11-16T18:56:18.237Z,9.76
2022-11-16T18:58:51.873Z,9.66
2022-11-16T19:01:22.625Z,9.69
2022-11-16T19:03:52.963Z,9.62
2022-11-16T19:06:22.387Z,9.69
2022-11-16T19:08:56.299Z,9.63
2022-11-16T19:11:26.562Z,9.63
2022-11-16T19:13:56.434Z,9.60
2022-11-16T19:16:25.478Z,9.56
2022-11-16T19:18:55.104Z,9.55
2022-11-16T19:21:23.419Z,9.52
2022-11-16T19:23:54.309Z,9.52
2022-11-16T19:26:23.952Z,9.47
2022-11-16T19:28:52.646Z,9.41
2022-11-16T19:31:23.285Z,9.39
2022-11-16T19:33:56.423Z,9.41
2022-11-16T19:36:25.052Z,9.37
2022-11-16T19:38:53.387Z,9.33
2022-11-16T19:41:22.596Z,9.35
2022-11-16T19:43:52.638Z,9.35
2022-11-16T19:46:21.587Z,9.36
2022-11-16T19:48:50.171Z,9.37
2022-11-16T19:51:21.263Z,9.32
2022-11-16T19:53:49.042Z,9.32
2022-11-16T19:56:19.066Z,9.26
2022-11-16T19:58:47.764Z,9.26
2022-11-16T20:01:18.641Z,9.21
2022-11-16T20:03:47.936Z,9.26
2022-11-16T20:06:20.654Z,9.17
2022-11-16T20:08:51.801Z,9.17
2022-11-16T20:11:22.119Z,9.18
2022-11-16T20:13:51.193Z,9.13
2022-11-16T20:16:20.928Z,9.13
2022-11-16T20:18:48.975Z,9.18
2022-11-16T20:21:22.365Z,9.19
2022-11-16T20:23:51.554Z,9.24
2022-11-16T20:26:20.566Z,9.22
2022-11-16T20:28:50.949Z,9.20
2022-11-16T20:31:20.554Z,9.18
2022-11-16T20:33:51.526Z,9.20
2022-11-16T20:36:22.832Z,9.21
2022-11-16T20:38:51.121Z,9.25
2022-11-16T20:41:21.035Z,9.21
2022-11-16T20:43:52.034Z,9.23
2022-11-16T20:46:22.358Z,9.27
2022-11-16T20:48:50.655Z,9.25
2022-11-16T20:51:21.340Z,9.28
2022-11-16T20:53:50.398Z,9.33
2022-11-16T20:56:20.526Z,9.39
2022-11-16T20:58:49.750Z,9.37
2022-11-16T21:01:20.604Z,9.37
2022-11-16T21:03:48.627Z,9.47
2022-11-16T21:06:17.085Z,9.45
2022-11-16T21:08:46.466Z,9.53
2022-11-16T21:11:15.630Z,9.55
2022-11-16T21:14:02.968Z,9.61
2022-11-16T21:16:31.333Z,9.62
2022-11-16T21:19:00.706Z,9.66
2022-11-16T21:21:29.043Z,9.70
2022-11-16T21:23:58.491Z,9.75
2022-11-16T21:26:28.265Z,9.75
2022-11-16T21:28:57.277Z,9.80
2022-11-16T21:31:27.797Z,9.87
2022-11-16T21:33:55.909Z,9.88
2022-11-16T21:36:25.482Z,9.88
2022-11-16T21:38:54.310Z,9.94
2022-11-16T21:41:27.595Z,9.91
2022-11-16T21:43:56.448Z,9.91
2022-11-16T21:46:26.597Z,9.89
2022-11-16T21:48:56.613Z,9.88
2022-11-16T21:51:27.279Z,9.88
2022-11-16T21:53:56.385Z,9.95
2022-11-16T21:56:26.927Z,9.92
2022-11-16T21:58:55.427Z,9.89
2022-11-16T22:01:24.653Z,9.91
2022-11-16T22:04:07.492Z,9.90
2022-11-16T22:06:52.893Z,10.02
2022-11-16T22:09:21.077Z,10.00
2022-11-16T22:11:50.545Z,10.01
2022-11-16T22:14:18.631Z,10.03
2022-11-16T22:16:46.570Z,10.07
2022-11-16T22:19:14.603Z,10.09
2022-11-16T22:21:42.659Z,10.11
2022-11-16T22:24:10.719Z,10.13
2022-11-16T22:26:39.910Z,10.20
2022-11-16T22:29:09.331Z,10.21
2022-11-16T22:31:37.402Z,10.19
2022-11-16T22:34:05.586Z,10.22
2022-11-16T22:36:33.653Z,10.16
2022-11-16T22:39:01.975Z,10.20
2022-11-16T22:41:30.046Z,10.19
2022-11-16T22:43:58.065Z,10.18
2022-11-16T22:46:27.423Z,10.20
2022-11-16T22:48:55.645Z,10.19
2022-11-16T22:51:25.304Z,10.19
2022-11-16T22:53:54.196Z,10.26
2022-11-16T22:56:22.272Z,10.25
2022-11-16T22:58:50.285Z,10.28
2022-11-16T23:01:18.812Z,10.33
2022-11-16T23:03:49.227Z,10.34
2022-11-16T23:06:17.669Z,10.34
2022-11-16T23:08:45.897Z,10.35
2022-11-16T23:11:33.032Z,10.40
2022-11-16T23:14:21.199Z,10.45
2022-11-16T23:16:49.757Z,10.50
2022-11-16T23:19:48.527Z,10.51
2022-11-16T23:22:36.482Z,10.51
2022-11-16T23:25:31.435Z,10.52
2022-11-16T23:28:04.467Z,10.55
2022-11-16T23:30:32.624Z,10.62
2022-11-16T23:33:00.706Z,10.65
2022-11-16T23:35:30.485Z,10.62
2022-11-16T23:38:00.335Z,10.61
2022-11-16T23:40:31.192Z,10.68
2022-11-16T23:43:17.187Z,10.66
2022-11-16T23:45:46.761Z,10.67
2022-11-16T23:48:17.244Z,10.71
2022-11-16T23:50:47.387Z,10.74
2022-11-16T23:53:15.435Z,10.74
2022-11-16T23:55:43.481Z,10.71
2022-11-16T23:58:14.362Z,10.72
